Terminal Aerodrome Forecast
Issued by NWS Shreveport, LA

Home | Current Version | Previous Version | Text Only | Print | Product List | Glossary On
Versions: 1 2 3 4 5 6 7 8 9 10 11 12 13 14 15 16 17 18 19 20 21 22 23 24
000
FTUS44 KSHV 210500 CCA
TAFLFK
TAF COR
KLFK 210543Z 2106/2206 14005KT P6SM FEW200
      TEMPO 2108/2110 4SM BR BKN015
     FM211000 17005KT 6SM BR BKN020
     FM211400 17007KT P6SM SCT025
     FM212000 18008KT P6SM VCTS SCT050CB
     FM220200 17003KT P6SM BKN250=

USA.gov is the U.S. government's official web portal to all federal, state and local government web resources and services.